Terminal Aerodrome Forecast
Issued by NWS

Home | Current Version | Previous Version | Text Only | Print | Product List | Glossary Off
Versions: 1 2 3 4 5 6 7 8 9 10 11 12 13 14 15 16

847
FTUS43 KOAX 200552 RRA
TAFCDR
TAF
KCDR 200552Z 2006/2106 VRB05KT P6SM BKN100
      TEMPO 2006/2010 VRB20G30KT 6SM -TSRA BKN080CB
     FM201000 05007KT P6SM BKN120
     FM201900 12010KT P6SM BKN080=

USA.gov is the U.S. government's official web portal to all federal, state and local government web resources and services.